createdAt,value
2023-05-10T04:32:27.331Z,12.73
2023-05-10T04:35:30.255Z,12.73
2023-05-10T04:38:34.171Z,12.06
2023-05-10T04:41:36.820Z,12.17
2023-05-10T04:44:39.474Z,11.89
2023-05-10T04:47:42.067Z,11.97
2023-05-10T04:50:44.620Z,11.90
2023-05-10T04:54:01.665Z,11.63
2023-05-10T04:57:09.266Z,11.87
2023-05-10T05:00:12.988Z,12.07
2023-05-10T05:03:16.211Z,12.30
2023-05-10T05:06:18.903Z,12.37
2023-05-10T05:09:21.447Z,12.69
2023-05-10T05:12:24.010Z,12.71
2023-05-10T05:15:26.676Z,12.97
2023-05-10T05:18:29.432Z,13.03
2023-05-10T05:21:33.297Z,13.21
2023-05-10T05:24:39.382Z,13.33
2023-05-10T05:27:41.995Z,13.22
2023-05-10T05:30:44.609Z,13.38
2023-05-10T05:33:47.391Z,13.60
2023-05-10T05:36:49.964Z,13.64
2023-05-10T05:39:52.561Z,13.52
2023-05-10T05:42:55.085Z,13.78
2023-05-10T05:45:59.241Z,13.86
2023-05-10T05:49:01.912Z,13.83
2023-05-10T05:52:04.729Z,13.97
2023-05-10T05:55:07.570Z,14.34
2023-05-10T05:58:10.150Z,14.55
2023-05-10T06:01:12.753Z,14.66
2023-05-10T06:04:15.464Z,14.19
2023-05-10T06:07:18.341Z,14.38
2023-05-10T06:10:21.454Z,14.24
2023-05-10T06:13:23.982Z,14.45
2023-05-10T06:16:26.630Z,14.47
2023-05-10T06:19:29.263Z,14.52
2023-05-10T06:22:31.813Z,14.50
2023-05-10T06:25:34.321Z,14.44
2023-05-10T06:28:39.461Z,14.35
2023-05-10T06:31:42.186Z,14.41
2023-05-10T06:34:45.727Z,14.71
2023-05-10T06:37:48.314Z,14.56
2023-05-10T06:40:50.926Z,14.71
2023-05-10T06:43:53.507Z,14.99
2023-05-10T06:46:56.886Z,15.33
2023-05-10T06:49:59.536Z,15.41
2023-05-10T06:53:02.942Z,15.42
2023-05-10T06:56:06.003Z,15.46
2023-05-10T06:59:08.892Z,15.62
2023-05-10T07:02:11.733Z,15.51
2023-05-10T07:05:15.322Z,15.93
2023-05-10T07:08:18.061Z,16.09
2023-05-10T07:11:20.655Z,15.57
2023-05-10T07:14:23.268Z,15.76
2023-05-10T07:17:26.237Z,15.68
2023-05-10T07:20:29.157Z,15.67
2023-05-10T07:23:31.774Z,15.81
2023-05-10T07:26:34.481Z,15.38
2023-05-10T07:29:37.416Z,15.59
2023-05-10T07:32:40.753Z,16.09
2023-05-10T07:35:43.759Z,15.73
2023-05-10T07:38:46.639Z,16.01
2023-05-10T07:41:49.300Z,15.65
2023-05-10T07:44:52.308Z,16.26
2023-05-10T07:47:54.896Z,16.13
2023-05-10T07:50:57.518Z,16.24
2023-05-10T07:54:00.233Z,16.75
2023-05-10T07:57:03.047Z,16.89
2023-05-10T08:00:06.580Z,16.65
2023-05-10T08:03:09.468Z,16.25
2023-05-10T08:06:12.370Z,16.04
2023-05-10T08:09:15.193Z,16.32
2023-05-10T08:12:17.910Z,16.53
2023-05-10T08:15:20.665Z,16.40
2023-05-10T08:18:23.879Z,16.16
2023-05-10T08:21:27.219Z,16.22
2023-05-10T08:24:29.850Z,16.45
2023-05-10T08:27:32.400Z,17.28
2023-05-10T08:30:35.215Z,17.16
2023-05-10T08:33:37.800Z,17.15
2023-05-10T08:36:40.298Z,17.09
2023-05-10T08:39:42.918Z,16.68
2023-05-10T08:43:08.909Z,17.21
2023-05-10T08:46:11.941Z,16.82
2023-05-10T08:49:14.913Z,16.85
2023-05-10T08:52:17.714Z,17.14
2023-05-10T08:55:20.347Z,16.51
2023-05-10T08:58:23.148Z,16.67
2023-05-10T09:01:32.151Z,16.78
2023-05-10T09:04:36.372Z,16.76
2023-05-10T09:07:39.633Z,16.61
2023-05-10T09:10:43.305Z,17.08
2023-05-10T09:13:45.873Z,17.32
2023-05-10T09:16:48.492Z,17.39
2023-05-10T09:19:51.038Z,17.32
2023-05-10T09:22:53.624Z,17.34
2023-05-10T09:26:08.311Z,17.62
2023-05-10T09:29:10.919Z,16.95
2023-05-10T09:32:13.802Z,17.01
2023-05-10T09:35:18.854Z,17.28
2023-05-10T09:38:21.933Z,17.31
2023-05-10T09:41:25.398Z,17.90
2023-05-10T09:44:28.258Z,17.99
2023-05-10T09:47:33.020Z,17.59
2023-05-10T09:50:35.667Z,17.83
2023-05-10T09:53:38.454Z,17.64
2023-05-10T09:56:41.789Z,17.61
2023-05-10T09:59:44.506Z,17.41
2023-05-10T10:02:48.849Z,17.52
2023-05-10T10:05:52.365Z,17.59
2023-05-10T10:08:56.691Z,17.70
2023-05-10T10:12:03.471Z,17.93
2023-05-10T10:15:07.837Z,17.63
2023-05-10T10:18:12.851Z,18.00
2023-05-10T10:21:16.449Z,18.62
2023-05-10T10:24:19.017Z,18.62
2023-05-10T10:27:40.290Z,18.06
2023-05-10T10:30:43.872Z,18.43
2023-05-10T10:34:08.277Z,18.27
2023-05-10T10:37:10.849Z,18.45
2023-05-10T10:40:27.076Z,18.47
2023-05-10T10:43:29.910Z,18.29
2023-05-10T10:46:33.294Z,18.10
2023-05-10T10:49:42.385Z,18.39
2023-05-10T10:52:46.027Z,18.38
2023-05-10T10:55:49.160Z,18.37
2023-05-10T10:58:54.950Z,18.29
2023-05-10T11:01:57.665Z,18.46
2023-05-10T11:05:00.441Z,18.81
2023-05-10T11:08:14.878Z,18.69
2023-05-10T11:11:17.470Z,18.97
2023-05-10T11:14:22.557Z,18.68
2023-05-10T11:17:25.659Z,18.87
2023-05-10T11:20:40.039Z,18.78
2023-05-10T11:23:53.396Z,18.41
2023-05-10T11:26:56.088Z,18.21
2023-05-10T11:29:58.722Z,18.52
2023-05-10T11:33:04.645Z,18.13
2023-05-10T11:36:07.787Z,18.03
2023-05-10T11:39:10.987Z,18.33
2023-05-10T11:42:13.550Z,18.70
2023-05-10T11:45:16.219Z,18.90
2023-05-10T11:48:23.409Z,18.91
2023-05-10T11:51:26.294Z,18.70
2023-05-10T11:54:28.863Z,18.70
2023-05-10T11:57:32.402Z,18.44
2023-05-10T12:00:35.026Z,18.17
2023-05-10T12:03:37.965Z,18.13
2023-05-10T12:06:44.024Z,18.16
2023-05-10T12:10:04.592Z,18.28
2023-05-10T12:13:10.302Z,18.47
2023-05-10T12:16:27.069Z,18.34
2023-05-10T12:19:29.735Z,18.75
2023-05-10T12:22:36.020Z,18.53
2023-05-10T12:25:39.633Z,18.66
2023-05-10T12:28:42.245Z,18.57
2023-05-10T12:31:57.842Z,18.47
2023-05-10T12:35:00.767Z,18.46
2023-05-10T12:38:03.351Z,18.64
2023-05-10T12:41:21.879Z,18.62
2023-05-10T12:44:25.263Z,18.44
2023-05-10T12:47:48.383Z,18.70
2023-05-10T12:50:55.089Z,18.92
2023-05-10T12:53:57.663Z,19.17
2023-05-10T12:57:00.232Z,19.11
2023-05-10T13:00:02.851Z,18.75
2023-05-10T13:03:09.176Z,18.64
2023-05-10T13:06:11.800Z,18.66
2023-05-10T13:09:14.340Z,19.03
2023-05-10T13:12:16.952Z,18.79
2023-05-10T13:15:19.524Z,18.67
2023-05-10T13:18:22.128Z,18.62
2023-05-10T13:21:26.174Z,18.87
2023-05-10T13:24:28.898Z,19.01
2023-05-10T13:27:31.521Z,19.06
2023-05-10T13:30:34.066Z,19.19
2023-05-10T13:33:36.615Z,19.06
2023-05-10T13:36:39.352Z,19.45
2023-05-10T13:39:41.905Z,19.50
2023-05-10T13:42:44.572Z,19.74
2023-05-10T13:45:47.232Z,19.92
2023-05-10T13:48:49.753Z,19.96
2023-05-10T13:51:53.115Z,19.40
2023-05-10T13:54:58.491Z,19.55
2023-05-10T13:58:01.270Z,19.57
2023-05-10T14:01:04.051Z,19.90
2023-05-10T14:04:08.773Z,20.04
2023-05-10T14:07:11.531Z,19.90
2023-05-10T14:10:14.083Z,19.74
2023-05-10T14:13:16.733Z,19.73
2023-05-10T14:16:19.427Z,19.37
2023-05-10T14:19:21.999Z,19.11
2023-05-10T14:22:24.732Z,19.00
2023-05-10T14:25:27.298Z,18.86
2023-05-10T14:28:29.884Z,19.02
2023-05-10T14:31:32.837Z,19.22
2023-05-10T14:34:35.498Z,18.99
2023-05-10T14:37:38.733Z,18.89
2023-05-10T14:40:41.328Z,19.03
2023-05-10T14:43:43.837Z,19.20
2023-05-10T14:46:46.395Z,18.90
2023-05-10T14:49:48.944Z,19.22
2023-05-10T14:52:51.597Z,19.25
2023-05-10T14:55:54.161Z,19.22
